Jonesboro Municipal Airport Jonesboro US
ICAO: KJBR
IATA: JBR
Category: Medium
Scheduled Services: Yes

Elevation: 262 ft
TransAlt. 18000 ft.

Airport Communications:
ASOS:118.525
MEMPHIS CNTR:120.075
CTAF:123.6
RDO:122.2
UNICOM:123

KJBR Zoom In..

Runways:

(A) RW 05 length 6200 ft width 150 ft
---- / hdg 50

(B) RW 13 length 4099 ft width 150 ft
---- / hdg 135

(C) RW 23 length 6200 ft width 150 ft
ILS 110.15 / hdg 230

(D) RW 31 length 4099 ft width 150 ft
---- / hdg 315

Location; KJBR
Day. 15 / Time. 22.01 Zulu
* Altimeter: 29.97
* Temperature: 24° c. 75.2°f.
* Wind from: 300° Speed 08 kn.
Dewpoint: 24° c.
Visibility: 3 Statute Miles.
Clouds: Broken 3200 ft.
Clouds: Broken 6500 ft.
Clouds: Overcast 11000 ft.
Conditions: Mist.

KJBR 152201Z AUTO 30008KT 3SM TSRA BR BKN032 BKN065 OVC110 24/24 A2997 RMK AO2 LTG DSNT ALQDS P0001 T02440239


Wind From 300°
Speed 08 kn.

 
 
jpsmedia.com for Web Design worldairports.se 2018   terms of use